createdAt,value
2018-09-02T00:08:00.694Z,94020.03
2018-09-02T00:23:34.839Z,94034.70
2018-09-02T00:39:08.365Z,94037.67
2018-09-02T00:54:42.742Z,94054.19
2018-09-02T01:10:16.103Z,94059.20
2018-09-02T01:25:49.269Z,94046.73
2018-09-02T01:41:23.653Z,94048.49
2018-09-02T01:56:56.775Z,94045.96
2018-09-02T02:12:31.314Z,94049.95
2018-09-02T02:28:05.600Z,94037.86
2018-09-02T02:43:39.779Z,94041.13
2018-09-02T02:59:14.134Z,94048.53
2018-09-02T03:14:47.443Z,94055.05
2018-09-02T03:30:22.035Z,94057.85
2018-09-02T03:45:56.683Z,94070.03
2018-09-02T04:01:31.138Z,94077.42
2018-09-02T04:17:05.446Z,94084.73
2018-09-02T04:32:39.115Z,94083.38
2018-09-02T04:48:13.275Z,94088.63
2018-09-02T05:03:47.060Z,94087.33
2018-09-02T05:19:20.898Z,94092.78
2018-09-02T05:34:55.068Z,94071.38
2018-09-02T05:50:29.360Z,94066.13
2018-09-02T06:06:03.656Z,94077.66
2018-09-02T06:21:38.250Z,94077.75
2018-09-02T06:37:12.243Z,94085.02
2018-09-02T06:52:45.717Z,94090.05
2018-09-02T07:08:20.604Z,94104.11
2018-09-02T07:23:54.272Z,94125.20
2018-09-02T07:39:29.017Z,94116.73
2018-09-02T07:55:04.138Z,94110.75
2018-09-02T08:10:38.298Z,94088.76
2018-09-02T08:26:12.701Z,94098.66
2018-09-02T08:41:47.163Z,94095.38
2018-09-02T08:57:21.642Z,94070.63
2018-09-02T09:12:55.973Z,94064.16
2018-09-02T09:28:29.168Z,94064.76
2018-09-02T09:44:02.491Z,94053.63
2018-09-02T09:59:36.119Z,94054.97
2018-09-02T10:15:10.383Z,94050.86
2018-09-02T10:30:43.535Z,94046.94
2018-09-02T10:46:17.185Z,94036.47
2018-09-02T11:01:50.347Z,94021.88
2018-09-02T11:17:24.461Z,94011.02
2018-09-02T11:32:59.516Z,94019.53
2018-09-02T11:48:33.102Z,93994.82
2018-09-02T12:04:07.235Z,93987.28
2018-09-02T12:19:41.258Z,93979.87
2018-09-02T12:35:15.431Z,93967.05
2018-09-02T12:50:49.769Z,93956.54
2018-09-02T13:06:23.191Z,93947.00
2018-09-02T13:21:58.126Z,93955.76
2018-09-02T13:37:32.239Z,93956.44
2018-09-02T13:53:05.971Z,93927.82
2018-09-02T14:08:39.824Z,93929.03
2018-09-02T14:24:13.858Z,93931.28
2018-09-02T14:39:48.259Z,93919.97
2018-09-02T14:55:31.002Z,93909.30
2018-09-02T15:11:05.185Z,93914.39
2018-09-02T15:26:39.698Z,93906.53
2018-09-02T15:42:14.374Z,93899.50
2018-09-02T15:57:47.522Z,93897.50
2018-09-02T16:13:21.092Z,93892.03
2018-09-02T16:28:47.176Z,93883.13
2018-09-02T16:43:51.059Z,93899.80
2018-09-02T16:58:55.506Z,93899.00
2018-09-02T17:13:59.344Z,93901.28
2018-09-02T17:29:03.247Z,93921.41
2018-09-02T17:44:07.197Z,93952.12
2018-09-02T17:59:11.123Z,93959.18
2018-09-02T18:14:15.512Z,93959.42
2018-09-02T18:29:19.353Z,93969.66
2018-09-02T18:44:23.107Z,93967.92
2018-09-02T18:59:27.036Z,93960.73
2018-09-02T19:14:30.924Z,93862.02
2018-09-02T19:29:34.807Z,93943.61
2018-09-02T19:44:38.632Z,93945.72
2018-09-02T19:59:42.430Z,93945.72
2018-09-02T20:14:46.258Z,93939.61
2018-09-02T20:29:50.071Z,93929.66
2018-09-02T20:44:53.893Z,93921.48
2018-09-02T20:59:57.696Z,93914.22
2018-09-02T21:15:01.521Z,93906.42
2018-09-02T21:30:05.486Z,93900.08
2018-09-02T21:45:09.899Z,93896.34
2018-09-02T22:00:15.611Z,93888.97
2018-09-02T22:15:19.538Z,93888.58
2018-09-02T22:30:24.103Z,93876.44
2018-09-02T22:45:27.857Z,93882.32
2018-09-02T23:00:31.630Z,93866.01
2018-09-02T23:15:35.386Z,93867.80
2018-09-02T23:30:39.500Z,93853.06
2018-09-02T23:45:43.301Z,93846.38
